Time;durP1;ratioP1;P1;durP2;ratioP2;P2;SDS_P1;SDS_P2;PMS_P1;PMS_P2;Temp;Humidity;BMP_temperature;BMP_pressure;BME280_temperature;BME280_humidity;BME280_pressure;Samples;Min_cycle;Max_cycle;Signal;HPM_P1;HPM_P2
2024/01/13 00:01:31;;;;;;;;;;;;;;;;;;5116012;28;19927;-69
2024/01/13 00:03:57;;;;;;;;;;;;;;;;;;5104390;28;19965;-68
2024/01/13 00:06:24;;;;;;;;;;;;;;;;;;5094314;28;20374;-68
2024/01/13 00:08:50;;;;;;;;;;;;;;;;;;5105000;28;20340;-68
2024/01/13 00:11:16;;;;;;;;;;;;;;;;;;5115545;28;20343;-69
2024/01/13 00:13:42;;;;;;;;;;;;;;;;;;5115737;28;19927;-69
2024/01/13 00:16:09;;;;;;;;;;;;;;;;;;5115570;28;20328;-69
2024/01/13 00:18:35;;;;;;;;;;;;;;;;;;5115716;28;19920;-68
2024/01/13 00:21:02;;;;;;;;;;;;;;;;;;5107893;28;19974;-68
2024/01/13 00:23:28;;;;;;;;;;;;;;;;;;5093952;28;19966;-68
2024/01/13 00:25:54;;;;;;;;;;;;;;;;;;5094959;28;19920;-67
2024/01/13 00:28:20;;;;;;;;;;;;;;;;;;5095066;28;19920;-68
2024/01/13 00:30:47;;;;;;;;;;;;;;;;;;5100283;28;20439;-68
2024/01/13 00:33:13;;;;;;;;;;;;;;;;;;5115483;28;20290;-68
2024/01/13 00:35:39;;;;;;;;;;;;;;;;;;5110963;28;19924;-68
2024/01/13 00:38:05;;;;;;;;;;;;;;;;;;5094291;28;19924;-68
2024/01/13 00:40:31;;;;;;;;;;;;;;;;;;5093768;28;19928;-68
2024/01/13 00:42:59;;;;;;;;;;;;;;;;;;5094776;28;19981;-68
2024/01/13 00:45:25;;;;;;;;;;;;;;;;;;5096715;28;19927;-68
2024/01/13 00:47:51;;;;;;;;;;;;;;;;;;5115037;28;19923;-68
2024/01/13 00:50:17;;;;;;;;;;;;;;;;;;5113968;28;19920;-69
2024/01/13 00:52:44;;;;;;;;;;;;;;;;;;5094496;28;20329;-68
2024/01/13 00:55:10;;;;;;;;;;;;;;;;;;5094534;28;20271;-67
2024/01/13 00:57:36;;;;;;;;;;;;;;;;;;5100851;28;19974;-68
2024/01/13 01:00:03;;;;;;;;;;;;;;;;;;5105067;28;19924;-68
2024/01/13 01:02:29;;;;;;;;;;;;;;;;;;5102764;28;19919;-67
2024/01/13 01:04:55;;;;;;;;;;;;;;;;;;5104978;28;19970;-67
2024/01/13 01:07:22;;;;;;;;;;;;;;;;;;5101352;28;19966;-67
2024/01/13 01:09:48;;;;;;;;;;;;;;;;;;5103888;28;19925;-67
2024/01/13 01:12:14;;;;;;;;;;;;;;;;;;5101402;28;20602;-68
2024/01/13 01:14:40;;;;;;;;;;;;;;;;;;5104905;28;19919;-67
2024/01/13 01:17:07;;;;;;;;;;;;;;;;;;5104629;28;19927;-67
2024/01/13 01:19:33;;;;;;;;;;;;;;;;;;5104288;28;19924;-68
2024/01/13 01:21:59;;;;;;;;;;;;;;;;;;5104800;28;19919;-68
2024/01/13 01:24:25;;;;;;;;;;;;;;;;;;5103193;28;19924;-68
2024/01/13 01:26:52;;;;;;;;;;;;;;;;;;5101551;28;20366;-67
2024/01/13 01:29:18;;;;;;;;;;;;;;;;;;5104749;28;20311;-67
2024/01/13 01:31:44;;;;;;;;;;;;;;;;;;5102548;28;20348;-69
2024/01/13 01:34:10;;;;;;;;;;;;;;;;;;5108256;28;19973;-69
2024/01/13 01:36:37;;;;;;;;;;;;;;;;;;5103211;28;19965;-69
2024/01/13 01:39:03;;;;;;;;;;;;;;;;;;5093810;28;19923;-69
2024/01/13 01:41:29;;;;;;;;;;;;;;;;;;5094910;28;19920;-69
2024/01/13 01:43:55;;;;;;;;;;;;;;;;;;5092187;28;19928;-69
2024/01/13 01:46:21;;;;;;;;;;;;;;;;;;5108717;28;19964;-69
2024/01/13 01:48:48;;;;;;;;;;;;;;;;;;5113941;28;19920;-70
2024/01/13 01:51:14;;;;;;;;;;;;;;;;;;5099642;28;19938;-69
2024/01/13 01:53:40;;;;;;;;;;;;;;;;;;5093315;28;19924;-70
2024/01/13 01:56:07;;;;;;;;;;;;;;;;;;5093554;28;19920;-70
2024/01/13 01:58:33;;;;;;;;;;;;;;;;;;5093317;28;19930;-69
2024/01/13 02:00:59;;;;;;;;;;;;;;;;;;5092656;28;19923;-70
2024/01/13 02:03:25;;;;;;;;;;;;;;;;;;5092657;28;19924;-70
2024/01/13 02:05:52;;;;;;;;;;;;;;;;;;5105040;28;19923;-70
2024/01/13 02:08:18;;;;;;;;;;;;;;;;;;5113521;28;19940;-70
2024/01/13 02:10:45;;;;;;;;;;;;;;;;;;5102303;28;19924;-70
2024/01/13 02:13:12;;;;;;;;;;;;;;;;;;5094234;28;20147;-69
2024/01/13 02:15:38;;;;;;;;;;;;;;;;;;5093189;28;19989;-69
2024/01/13 02:18:04;;;;;;;;;;;;;;;;;;5091503;28;19973;-70
2024/01/13 02:20:30;;;;;;;;;;;;;;;;;;5093018;28;19985;-70
2024/01/13 02:22:57;;;;;;;;;;;;;;;;;;5097523;28;20495;-70
2024/01/13 02:25:23;;;;;;;;;;;;;;;;;;5113239;28;19924;-70
2024/01/13 02:27:49;;;;;;;;;;;;;;;;;;5109439;28;19966;-70
2024/01/13 02:30:15;;;;;;;;;;;;;;;;;;5092781;28;19924;-71
2024/01/13 02:32:42;;;;;;;;;;;;;;;;;;5092770;28;19920;-70
2024/01/13 02:35:08;;;;;;;;;;;;;;;;;;5091157;28;19973;-70
2024/01/13 02:37:34;;;;;;;;;;;;;;;;;;5093812;28;19920;-70
2024/01/13 02:40:00;;;;;;;;;;;;;;;;;;5113023;28;19927;-70
2024/01/13 02:42:27;;;;;;;;;;;;;;;;;;5112566;28;19923;-70
2024/01/13 02:44:53;;;;;;;;;;;;;;;;;;5092494;28;19985;-70
2024/01/13 02:47:19;;;;;;;;;;;;;;;;;;5092517;28;20421;-68
2024/01/13 02:49:45;;;;;;;;;;;;;;;;;;5090926;28;20336;-69
2024/01/13 02:52:12;;;;;;;;;;;;;;;;;;5092498;28;20271;-68
2024/01/13 02:54:38;;;;;;;;;;;;;;;;;;5110579;28;19919;-70
2024/01/13 02:57:04;;;;;;;;;;;;;;;;;;5112782;28;19920;-70
2024/01/13 02:59:30;;;;;;;;;;;;;;;;;;5095364;28;19927;-70
2024/01/13 03:01:57;;;;;;;;;;;;;;;;;;5108211;28;19977;-70
2024/01/13 03:04:23;;;;;;;;;;;;;;;;;;5100652;28;19971;-70
2024/01/13 03:06:49;;;;;;;;;;;;;;;;;;5091060;28;19920;-70
2024/01/13 03:09:16;;;;;;;;;;;;;;;;;;5097705;28;19927;-71
2024/01/13 03:11:42;;;;;;;;;;;;;;;;;;5112396;28;19919;-70
2024/01/13 03:14:09;;;;;;;;;;;;;;;;;;5107624;28;19973;-70
2024/01/13 03:16:35;;;;;;;;;;;;;;;;;;5091343;28;19963;-69
2024/01/13 03:19:01;;;;;;;;;;;;;;;;;;5094988;28;19923;-68
2024/01/13 03:21:27;;;;;;;;;;;;;;;;;;5112405;28;19965;-68
2024/01/13 03:23:54;;;;;;;;;;;;;;;;;;5097495;28;19923;-68
2024/01/13 03:26:20;;;;;;;;;;;;;;;;;;5112397;28;20377;-68
2024/01/13 03:28:46;;;;;;;;;;;;;;;;;;5102010;28;20363;-68
2024/01/13 03:31:12;;;;;;;;;;;;;;;;;;5112359;28;20023;-68
2024/01/13 03:33:38;;;;;;;;;;;;;;;;;;5112202;28;19920;-68
2024/01/13 03:36:05;;;;;;;;;;;;;;;;;;5112038;28;19927;-68
2024/01/13 03:38:31;;;;;;;;;;;;;;;;;;5112416;28;20040;-68
2024/01/13 03:40:57;;;;;;;;;;;;;;;;;;5093514;28;19924;-68
2024/01/13 03:43:23;;;;;;;;;;;;;;;;;;5091774;28;19969;-68
2024/01/13 03:45:50;;;;;;;;;;;;;;;;;;5108134;28;19923;-68
2024/01/13 03:48:16;;;;;;;;;;;;;;;;;;5112180;28;19919;-68
2024/01/13 03:50:42;;;;;;;;;;;;;;;;;;5111616;28;20467;-68
2024/01/13 03:53:09;;;;;;;;;;;;;;;;;;5112352;28;19926;-67
2024/01/13 03:55:35;;;;;;;;;;;;;;;;;;5096808;28;19968;-68
2024/01/13 03:58:01;;;;;;;;;;;;;;;;;;5091419;28;19920;-68
2024/01/13 04:00:27;;;;;;;;;;;;;;;;;;5091225;28;19920;-68
2024/01/13 04:02:53;;;;;;;;;;;;;;;;;;5091555;28;19923;-67
2024/01/13 04:05:20;;;;;;;;;;;;;;;;;;5091643;28;20424;-68
2024/01/13 04:07:46;;;;;;;;;;;;;;;;;;5091579;28;20288;-67
2024/01/13 04:10:12;;;;;;;;;;;;;;;;;;5103173;28;20010;-67
2024/01/13 04:12:39;;;;;;;;;;;;;;;;;;5111865;28;20431;-68
2024/01/13 04:15:05;;;;;;;;;;;;;;;;;;5101026;28;19927;-68
2024/01/13 04:17:32;;;;;;;;;;;;;;;;;;5090246;28;19973;-67
2024/01/13 04:19:58;;;;;;;;;;;;;;;;;;5091310;28;19949;-68
2024/01/13 04:22:24;;;;;;;;;;;;;;;;;;5091498;28;19924;-67
2024/01/13 04:24:50;;;;;;;;;;;;;;;;;;5099958;28;19977;-67
2024/01/13 04:27:17;;;;;;;;;;;;;;;;;;5113162;28;19965;-68
2024/01/13 04:29:43;;;;;;;;;;;;;;;;;;5107842;28;19920;-67
2024/01/13 04:32:09;;;;;;;;;;;;;;;;;;5112912;28;19920;-67
2024/01/13 04:34:35;;;;;;;;;;;;;;;;;;5096097;28;20332;-68
2024/01/13 04:37:02;;;;;;;;;;;;;;;;;;5110486;28;20351;-68
2024/01/13 04:39:28;;;;;;;;;;;;;;;;;;5115331;28;19920;-68
2024/01/13 04:41:54;;;;;;;;;;;;;;;;;;5100928;28;19924;-68
2024/01/13 04:44:20;;;;;;;;;;;;;;;;;;5094914;28;19969;-67
2024/01/13 04:46:47;;;;;;;;;;;;;;;;;;5107365;28;19977;-67
2024/01/13 04:49:13;;;;;;;;;;;;;;;;;;5115168;28;19923;-67
2024/01/13 04:51:39;;;;;;;;;;;;;;;;;;5103337;28;19966;-67
2024/01/13 04:54:05;;;;;;;;;;;;;;;;;;5094585;28;19976;-67
2024/01/13 04:56:31;;;;;;;;;;;;;;;;;;5104786;28;19920;-67
2024/01/13 04:58:58;;;;;;;;;;;;;;;;;;5114846;28;19972;-67
2024/01/13 05:01:24;;;;;;;;;;;;;;;;;;5103624;28;20523;-67
2024/01/13 05:03:50;;;;;;;;;;;;;;;;;;5094413;28;20469;-67
2024/01/13 05:06:16;;;;;;;;;;;;;;;;;;5094560;28;20332;-67
2024/01/13 05:08:43;;;;;;;;;;;;;;;;;;5093020;28;20356;-67
2024/01/13 05:11:09;;;;;;;;;;;;;;;;;;5103583;28;19919;-67
2024/01/13 05:13:35;;;;;;;;;;;;;;;;;;5114703;28;19928;-67
2024/01/13 05:16:02;;;;;;;;;;;;;;;;;;5106217;28;19924;-67
2024/01/13 05:18:28;;;;;;;;;;;;;;;;;;5094107;28;19927;-67
2024/01/13 05:20:54;;;;;;;;;;;;;;;;;;5094082;28;19970;-67
2024/01/13 05:23:21;;;;;;;;;;;;;;;;;;5093305;28;19920;-68
2024/01/13 05:25:47;;;;;;;;;;;;;;;;;;5099834;28;19931;-67
2024/01/13 05:28:13;;;;;;;;;;;;;;;;;;5114479;28;19923;-67
2024/01/13 05:30:39;;;;;;;;;;;;;;;;;;5095088;28;19965;-67
2024/01/13 05:33:06;;;;;;;;;;;;;;;;;;5093888;28;19919;-67
2024/01/13 05:35:32;;;;;;;;;;;;;;;;;;5092668;28;19928;-67
2024/01/13 05:37:58;;;;;;;;;;;;;;;;;;5093249;28;20370;-67
2024/01/13 05:40:25;;;;;;;;;;;;;;;;;;5093262;28;20535;-68
2024/01/13 05:42:51;;;;;;;;;;;;;;;;;;5093608;28;19920;-67
2024/01/13 05:45:17;;;;;;;;;;;;;;;;;;5093622;28;19966;-66
2024/01/13 05:47:44;;;;;;;;;;;;;;;;;;5093723;28;20388;-67
2024/01/13 05:50:10;;;;;;;;;;;;;;;;;;5093139;28;20341;-67
2024/01/13 05:52:36;;;;;;;;;;;;;;;;;;5092737;28;19978;-67
2024/01/13 05:55:04;;;;;;;;;;;;;;;;;;5093136;28;20272;-66
2024/01/13 05:57:30;;;;;;;;;;;;;;;;;;5092739;28;19975;-67
2024/01/13 05:59:56;;;;;;;;;;;;;;;;;;5092585;28;19920;-67
2024/01/13 06:02:22;;;;;;;;;;;;;;;;;;5093200;28;20155;-67
2024/01/13 06:04:49;;;;;;;;;;;;;;;;;;5093213;28;19973;-66
2024/01/13 06:07:15;;;;;;;;;;;;;;;;;;5093107;28;19928;-67
2024/01/13 06:09:41;;;;;;;;;;;;;;;;;;5093199;28;19919;-66
2024/01/13 06:12:08;;;;;;;;;;;;;;;;;;5091997;28;19924;-67
2024/01/13 06:14:34;;;;;;;;;;;;;;;;;;5093147;28;19920;-67
2024/01/13 06:17:00;;;;;;;;;;;;;;;;;;5107894;28;19923;-67
2024/01/13 06:19:26;;;;;;;;;;;;;;;;;;5113420;28;19981;-67
2024/01/13 06:21:53;;;;;;;;;;;;;;;;;;5113085;28;19920;-66
2024/01/13 06:24:19;;;;;;;;;;;;;;;;;;5113348;28;19919;-66
2024/01/13 06:26:45;;;;;;;;;;;;;;;;;;5100748;28;19973;-67
2024/01/13 06:29:11;;;;;;;;;;;;;;;;;;5092593;28;19919;-67
2024/01/13 06:31:38;;;;;;;;;;;;;;;;;;5091288;28;19924;-67
2024/01/13 06:34:04;;;;;;;;;;;;;;;;;;5092932;28;19965;-66
2024/01/13 06:36:30;;;;;;;;;;;;;;;;;;5092818;28;19977;-67
2024/01/13 06:38:56;;;;;;;;;;;;;;;;;;5098313;28;19927;-68
2024/01/13 06:41:23;;;;;;;;;;;;;;;;;;5113081;28;19920;-66
2024/01/13 06:43:50;;;;;;;;;;;;;;;;;;5112628;28;20329;-67
2024/01/13 06:46:16;;;;;;;;;;;;;;;;;;5104089;28;19920;-65
2024/01/13 06:48:44;;;;;;;;;;;;;;;;;;5092531;28;19943;-65
2024/01/13 06:51:10;;;;;;;;;;;;;;;;;;5092250;28;20420;-65
2024/01/13 06:53:36;;;;;;;;;;;;;;;;;;5092291;28;20374;-64
2024/01/13 06:56:03;;;;;;;;;;;;;;;;;;5092287;28;20332;-64
2024/01/13 06:58:29;;;;;;;;;;;;;;;;;;5092657;28;19927;-65
2024/01/13 07:00:55;;;;;;;;;;;;;;;;;;5096799;28;19928;-65
2024/01/13 07:03:21;;;;;;;;;;;;;;;;;;5098586;28;19919;-64
2024/01/13 07:05:48;;;;;;;;;;;;;;;;;;5092352;28;19966;-65
2024/01/13 07:08:14;;;;;;;;;;;;;;;;;;5091583;28;19920;-65
2024/01/13 07:10:40;;;;;;;;;;;;;;;;;;5091994;28;19924;-65
2024/01/13 07:13:06;;;;;;;;;;;;;;;;;;5100244;28;19920;-65
2024/01/13 07:15:32;;;;;;;;;;;;;;;;;;5112672;28;19973;-65
2024/01/13 07:17:59;;;;;;;;;;;;;;;;;;5092160;28;20602;-66
2024/01/13 07:20:26;;;;;;;;;;;;;;;;;;5073654;28;20353;-65
2024/01/13 07:22:52;;;;;;;;;;;;;;;;;;5071814;28;19971;-65
2024/01/13 07:25:18;;;;;;;;;;;;;;;;;;5091340;28;19947;-65
2024/01/13 07:27:44;;;;;;;;;;;;;;;;;;5091835;28;20378;-65
2024/01/13 07:30:10;;;;;;;;;;;;;;;;;;5069940;28;20268;-65
2024/01/13 07:32:37;;;;;;;;;;;;;;;;;;5078918;28;20336;-66
2024/01/13 07:35:03;;;;;;;;;;;;;;;;;;5089270;28;19920;-66
2024/01/13 07:37:29;;;;;;;;;;;;;;;;;;5089616;28;19920;-66
2024/01/13 07:39:55;;;;;;;;;;;;;;;;;;5111544;28;20374;-65
2024/01/13 07:42:22;;;;;;;;;;;;;;;;;;5093408;28;19920;-65
2024/01/13 07:44:48;;;;;;;;;;;;;;;;;;5091737;28;19920;-66
2024/01/13 07:47:14;;;;;;;;;;;;;;;;;;5091857;28;19981;-66
2024/01/13 07:49:40;;;;;;;;;;;;;;;;;;5092657;28;19973;-67
2024/01/13 07:52:07;;;;;;;;;;;;;;;;;;5098309;28;19924;-66
2024/01/13 07:54:33;;;;;;;;;;;;;;;;;;5079846;28;19923;-65
2024/01/13 07:57:00;;;;;;;;;;;;;;;;;;5102116;28;20355;-67
2024/01/13 07:59:26;;;;;;;;;;;;;;;;;;5091416;28;20352;-65
2024/01/13 08:01:52;;;;;;;;;;;;;;;;;;5105561;28;19989;-66
2024/01/13 08:04:19;;;;;;;;;;;;;;;;;;5077074;28;19921;-66
2024/01/13 08:06:45;;;;;;;;;;;;;;;;;;5075498;28;19928;-67
2024/01/13 08:09:11;;;;;;;;;;;;;;;;;;5072445;28;19978;-66
2024/01/13 08:11:38;;;;;;;;;;;;;;;;;;5093298;28;19920;-66
2024/01/13 08:14:04;;;;;;;;;;;;;;;;;;5091039;28;19920;-65
2024/01/13 08:16:30;;;;;;;;;;;;;;;;;;5092476;28;20352;-66
2024/01/13 08:18:57;;;;;;;;;;;;;;;;;;5094667;28;19928;-68
2024/01/13 08:21:23;;;;;;;;;;;;;;;;;;5091907;28;20001;-66
2024/01/13 08:23:49;;;;;;;;;;;;;;;;;;5090289;28;19973;-67
2024/01/13 08:26:15;;;;;;;;;;;;;;;;;;5078692;28;19980;-68
2024/01/13 08:28:42;;;;;;;;;;;;;;;;;;5094711;28;19924;-67
2024/01/13 08:31:09;;;;;;;;;;;;;;;;;;5098569;28;20223;-68
2024/01/13 08:33:35;;;;;;;;;;;;;;;;;;5100631;28;19977;-68
2024/01/13 08:36:01;;;;;;;;;;;;;;;;;;5089477;28;19920;-69
2024/01/13 08:38:27;;;;;;;;;;;;;;;;;;5086763;28;19920;-68
2024/01/13 08:40:54;;;;;;;;;;;;;;;;;;5079062;28;20367;-67
2024/01/13 08:43:20;;;;;;;;;;;;;;;;;;5074964;28;20341;-69
2024/01/13 08:45:46;;;;;;;;;;;;;;;;;;5082843;28;20333;-68
2024/01/13 08:48:13;;;;;;;;;;;;;;;;;;5093697;28;19981;-67
2024/01/13 08:50:40;;;;;;;;;;;;;;;;;;5094257;28;19923;-67
2024/01/13 08:53:06;;;;;;;;;;;;;;;;;;5084826;28;20001;-67
2024/01/13 08:55:32;;;;;;;;;;;;;;;;;;5074436;28;19932;-68
2024/01/13 08:57:59;;;;;;;;;;;;;;;;;;5085053;28;19960;-67
2024/01/13 09:00:25;;;;;;;;;;;;;;;;;;5094275;28;20302;-68
2024/01/13 09:02:53;;;;;;;;;;;;;;;;;;5093877;28;19920;-68
2024/01/13 09:05:19;;;;;;;;;;;;;;;;;;5079478;28;19920;-68
2024/01/13 09:07:45;;;;;;;;;;;;;;;;;;5094088;28;19977;-67
2024/01/13 09:10:11;;;;;;;;;;;;;;;;;;5085703;28;19973;-67
2024/01/13 09:12:38;;;;;;;;;;;;;;;;;;5082159;28;19924;-67
2024/01/13 09:15:06;;;;;;;;;;;;;;;;;;5079803;28;19925;-67
2024/01/13 09:17:32;;;;;;;;;;;;;;;;;;5087105;28;20364;-67
2024/01/13 09:19:58;;;;;;;;;;;;;;;;;;5088700;28;20336;-67
2024/01/13 09:22:25;;;;;;;;;;;;;;;;;;5084088;28;19925;-67
2024/01/13 09:24:51;;;;;;;;;;;;;;;;;;5095621;28;19924;-67
2024/01/13 09:27:17;;;;;;;;;;;;;;;;;;5100728;28;20071;-67
2024/01/13 09:29:43;;;;;;;;;;;;;;;;;;5095512;28;19980;-67
2024/01/13 09:32:09;;;;;;;;;;;;;;;;;;5089197;28;20019;-66
2024/01/13 09:34:36;;;;;;;;;;;;;;;;;;5094082;28;19920;-67
2024/01/13 09:37:02;;;;;;;;;;;;;;;;;;5106741;28;19924;-68
2024/01/13 09:39:28;;;;;;;;;;;;;;;;;;5094378;28;20431;-68
2024/01/13 09:41:55;;;;;;;;;;;;;;;;;;5099160;28;20664;-67
2024/01/13 09:44:21;;;;;;;;;;;;;;;;;;5090198;28;20019;-68
2024/01/13 09:46:47;;;;;;;;;;;;;;;;;;5093433;28;20010;-68
2024/01/13 09:49:14;;;;;;;;;;;;;;;;;;5094443;28;19920;-68
2024/01/13 09:51:40;;;;;;;;;;;;;;;;;;5093172;28;19924;-68
2024/01/13 09:54:06;;;;;;;;;;;;;;;;;;5093364;28;20360;-67
2024/01/13 09:56:32;;;;;;;;;;;;;;;;;;5093070;28;19924;-68
2024/01/13 09:58:59;;;;;;;;;;;;;;;;;;5093140;28;20271;-68
2024/01/13 10:01:25;;;;;;;;;;;;;;;;;;5085194;28;19928;-68
2024/01/13 10:03:51;;;;;;;;;;;;;;;;;;5071495;28;20409;-68
2024/01/13 10:06:17;;;;;;;;;;;;;;;;;;5072619;28;19924;-68
2024/01/13 10:08:43;;;;;;;;;;;;;;;;;;5072743;28;19921;-68
2024/01/13 10:11:10;;;;;;;;;;;;;;;;;;5072720;28;19978;-69
2024/01/13 10:13:36;;;;;;;;;;;;;;;;;;5072585;28;19920;-68
2024/01/13 10:16:02;;;;;;;;;;;;;;;;;;5078690;28;19970;-68
2024/01/13 10:18:28;;;;;;;;;;;;;;;;;;5089094;28;19973;-68
2024/01/13 10:20:55;;;;;;;;;;;;;;;;;;5076488;28;19925;-69
2024/01/13 10:23:22;;;;;;;;;;;;;;;;;;5071282;28;19920;-68
2024/01/13 10:25:48;;;;;;;;;;;;;;;;;;5072041;28;19924;-68
2024/01/13 10:28:15;;;;;;;;;;;;;;;;;;5072461;28;19970;-68
2024/01/13 10:30:41;;;;;;;;;;;;;;;;;;5103672;28;19965;-69
2024/01/13 10:33:07;;;;;;;;;;;;;;;;;;5107605;28;19920;-68
2024/01/13 10:35:33;;;;;;;;;;;;;;;;;;5095092;28;19947;-69
2024/01/13 10:38:00;;;;;;;;;;;;;;;;;;5090558;28;19924;-68
2024/01/13 10:40:26;;;;;;;;;;;;;;;;;;5099291;28;20323;-68
2024/01/13 10:42:53;;;;;;;;;;;;;;;;;;5088594;28;20383;-68
2024/01/13 10:45:19;;;;;;;;;;;;;;;;;;5083941;28;19972;-68
2024/01/13 10:47:45;;;;;;;;;;;;;;;;;;5083221;28;19923;-68
2024/01/13 10:50:12;;;;;;;;;;;;;;;;;;5085013;28;19920;-67
2024/01/13 10:52:38;;;;;;;;;;;;;;;;;;5081432;28;19924;-67
2024/01/13 10:55:04;;;;;;;;;;;;;;;;;;5081948;28;19928;-67
2024/01/13 10:57:31;;;;;;;;;;;;;;;;;;5089277;28;19970;-68
2024/01/13 10:59:57;;;;;;;;;;;;;;;;;;5089659;28;19923;-69
2024/01/13 11:02:23;;;;;;;;;;;;;;;;;;5089025;28;19981;-68
2024/01/13 11:04:49;;;;;;;;;;;;;;;;;;5088360;28;20374;-68
2024/01/13 11:07:16;;;;;;;;;;;;;;;;;;5091689;28;20366;-67
2024/01/13 11:09:42;;;;;;;;;;;;;;;;;;5088367;28;20333;-67
2024/01/13 11:12:08;;;;;;;;;;;;;;;;;;5082670;28;19990;-67
2024/01/13 11:14:33;;;;;;;;;;;;;;;;;;5094688;28;19965;-67
2024/01/13 11:17:00;;;;;;;;;;;;;;;;;;5112628;28;20355;-68
2024/01/13 11:19:26;;;;;;;;;;;;;;;;;;5099894;28;19973;-68
2024/01/13 11:21:52;;;;;;;;;;;;;;;;;;5091863;28;19920;-67
2024/01/13 11:24:19;;;;;;;;;;;;;;;;;;5102178;28;19920;-68
2024/01/13 11:26:45;;;;;;;;;;;;;;;;;;5112014;28;20382;-67
2024/01/13 11:29:11;;;;;;;;;;;;;;;;;;5099383;28;19935;-68
2024/01/13 11:31:38;;;;;;;;;;;;;;;;;;5083919;28;19923;-67
2024/01/13 11:34:04;;;;;;;;;;;;;;;;;;5091750;28;19924;-66
2024/01/13 11:36:30;;;;;;;;;;;;;;;;;;5097901;28;19980;-68
2024/01/13 11:38:57;;;;;;;;;;;;;;;;;;5101888;28;20164;-68
2024/01/13 11:41:23;;;;;;;;;;;;;;;;;;5098411;28;19972;-68
2024/01/13 11:43:49;;;;;;;;;;;;;;;;;;5095979;28;19920;-68
2024/01/13 11:46:17;;;;;;;;;;;;;;;;;;5094589;28;19927;-68
2024/01/13 11:48:43;;;;;;;;;;;;;;;;;;5100600;28;19920;-68
2024/01/13 11:51:12;;;;;;;;;;;;;;;;;;5091494;28;19977;-70
2024/01/13 11:53:39;;;;;;;;;;;;;;;;;;5095340;28;19924;-69
2024/01/13 11:56:06;;;;;;;;;;;;;;;;;;5096160;28;19971;-69
2024/01/13 11:58:32;;;;;;;;;;;;;;;;;;5096122;28;20378;-68
2024/01/13 12:00:58;;;;;;;;;;;;;;;;;;5096451;28;20378;-69
2024/01/13 12:03:24;;;;;;;;;;;;;;;;;;5097189;28;20333;-70
2024/01/13 12:05:51;;;;;;;;;;;;;;;;;;5099458;28;19981;-69
2024/01/13 12:08:17;;;;;;;;;;;;;;;;;;5095516;28;19920;-69
2024/01/13 12:10:43;;;;;;;;;;;;;;;;;;5095469;28;19927;-69
2024/01/13 12:13:10;;;;;;;;;;;;;;;;;;5095398;28;19924;-69
2024/01/13 12:15:37;;;;;;;;;;;;;;;;;;5095564;28;19981;-70
2024/01/13 12:18:03;;;;;;;;;;;;;;;;;;5109196;28;20404;-69
2024/01/13 12:20:30;;;;;;;;;;;;;;;;;;5095324;28;19924;-69
2024/01/13 12:22:56;;;;;;;;;;;;;;;;;;5095095;28;19923;-69
2024/01/13 12:25:22;;;;;;;;;;;;;;;;;;5093432;28;19945;-69
2024/01/13 12:27:48;;;;;;;;;;;;;;;;;;5095154;28;19977;-68
2024/01/13 12:30:15;;;;;;;;;;;;;;;;;;5095209;28;20635;-69
2024/01/13 12:32:41;;;;;;;;;;;;;;;;;;5094881;28;20329;-69
2024/01/13 12:35:07;;;;;;;;;;;;;;;;;;5098597;28;20044;-69
2024/01/13 12:37:34;;;;;;;;;;;;;;;;;;5094816;28;19919;-68
2024/01/13 12:40:00;;;;;;;;;;;;;;;;;;5094616;28;19927;-69
2024/01/13 12:42:26;;;;;;;;;;;;;;;;;;5094757;28;19923;-70
2024/01/13 12:44:52;;;;;;;;;;;;;;;;;;5091782;28;19973;-68
2024/01/13 12:47:18;;;;;;;;;;;;;;;;;;5094693;28;20319;-68
2024/01/13 12:49:45;;;;;;;;;;;;;;;;;;5109805;28;20454;-69
2024/01/13 12:52:11;;;;;;;;;;;;;;;;;;5114729;28;20351;-68
2024/01/13 12:54:38;;;;;;;;;;;;;;;;;;5104285;28;20317;-69
2024/01/13 12:57:04;;;;;;;;;;;;;;;;;;5094085;28;20414;-68
2024/01/13 12:59:31;;;;;;;;;;;;;;;;;;5092836;28;19966;-69
2024/01/13 13:01:57;;;;;;;;;;;;;;;;;;5073942;28;19924;-70
2024/01/13 13:04:24;;;;;;;;;;;;;;;;;;5091406;28;19920;-68
2024/01/13 13:06:50;;;;;;;;;;;;;;;;;;5094002;28;19923;-69
2024/01/13 13:09:17;;;;;;;;;;;;;;;;;;5086899;28;19927;-68
2024/01/13 13:11:43;;;;;;;;;;;;;;;;;;5093959;28;19973;-68
2024/01/13 13:14:09;;;;;;;;;;;;;;;;;;5093914;28;19973;-69
2024/01/13 13:16:36;;;;;;;;;;;;;;;;;;5090115;28;20082;-69
2024/01/13 13:19:03;;;;;;;;;;;;;;;;;;5085961;28;19920;-69
2024/01/13 13:21:29;;;;;;;;;;;;;;;;;;5080446;28;19989;-68
2024/01/13 13:23:55;;;;;;;;;;;;;;;;;;5091318;28;20375;-68
2024/01/13 13:26:22;;;;;;;;;;;;;;;;;;5093709;28;20297;-67
2024/01/13 13:28:48;;;;;;;;;;;;;;;;;;5090644;28;20349;-69
2024/01/13 13:31:14;;;;;;;;;;;;;;;;;;5073789;28;19982;-68
2024/01/13 13:33:40;;;;;;;;;;;;;;;;;;5088868;28;19977;-69
2024/01/13 13:36:07;;;;;;;;;;;;;;;;;;5092842;28;20020;-68
2024/01/13 13:38:33;;;;;;;;;;;;;;;;;;5093079;28;19920;-68
2024/01/13 13:40:59;;;;;;;;;;;;;;;;;;5079425;28;19923;-69
2024/01/13 13:43:26;;;;;;;;;;;;;;;;;;5084334;28;20298;-69
2024/01/13 13:45:52;;;;;;;;;;;;;;;;;;5083012;28;20394;-67
2024/01/13 13:48:19;;;;;;;;;;;;;;;;;;5083070;28;21080;-68
2024/01/13 13:50:45;;;;;;;;;;;;;;;;;;5088187;28;19928;-69
2024/01/13 13:53:11;;;;;;;;;;;;;;;;;;5093152;28;20044;-68
2024/01/13 13:55:37;;;;;;;;;;;;;;;;;;5093312;28;19969;-69
2024/01/13 13:58:04;;;;;;;;;;;;;;;;;;5092659;28;19976;-68
2024/01/13 14:00:30;;;;;;;;;;;;;;;;;;5107967;28;19969;-69
2024/01/13 14:02:57;;;;;;;;;;;;;;;;;;5113395;28;20014;-69
2024/01/13 14:05:23;;;;;;;;;;;;;;;;;;5112587;28;19967;-68
2024/01/13 14:07:49;;;;;;;;;;;;;;;;;;5093210;28;19969;-67
2024/01/13 14:10:16;;;;;;;;;;;;;;;;;;5093070;28;19928;-68
2024/01/13 14:12:42;;;;;;;;;;;;;;;;;;5088289;28;20027;-68
2024/01/13 14:15:08;;;;;;;;;;;;;;;;;;5093215;28;19924;-68
2024/01/13 14:17:35;;;;;;;;;;;;;;;;;;5106507;28;19928;-67
2024/01/13 14:20:01;;;;;;;;;;;;;;;;;;5113034;28;19924;-67
2024/01/13 14:22:28;;;;;;;;;;;;;;;;;;5113154;28;20035;-70
2024/01/13 14:24:54;;;;;;;;;;;;;;;;;;5112791;28;19975;-67
2024/01/13 14:27:20;;;;;;;;;;;;;;;;;;5105593;28;19977;-68
2024/01/13 14:29:47;;;;;;;;;;;;;;;;;;5088668;28;19928;-67
2024/01/13 14:32:13;;;;;;;;;;;;;;;;;;5084443;28;19920;-67
2024/01/13 14:34:39;;;;;;;;;;;;;;;;;;5092221;28;19926;-67
2024/01/13 14:37:05;;;;;;;;;;;;;;;;;;5092185;28;19924;-68
2024/01/13 14:39:32;;;;;;;;;;;;;;;;;;5099514;28;20012;-68
2024/01/13 14:41:58;;;;;;;;;;;;;;;;;;5083796;28;19921;-68
2024/01/13 14:44:24;;;;;;;;;;;;;;;;;;5091468;28;20520;-67
2024/01/13 14:46:51;;;;;;;;;;;;;;;;;;5084316;28;20332;-68
2024/01/13 14:49:18;;;;;;;;;;;;;;;;;;5083142;28;19930;-68
2024/01/13 14:51:44;;;;;;;;;;;;;;;;;;5092156;28;19919;-67
2024/01/13 14:54:10;;;;;;;;;;;;;;;;;;5084823;28;19930;-67
2024/01/13 14:56:36;;;;;;;;;;;;;;;;;;5090600;28;20463;-67
2024/01/13 14:59:03;;;;;;;;;;;;;;;;;;5085612;28;20255;-67
2024/01/13 15:01:30;;;;;;;;;;;;;;;;;;5090596;28;19928;-67
2024/01/13 15:03:56;;;;;;;;;;;;;;;;;;5108008;28;19919;-67
2024/01/13 15:06:25;;;;;;;;;;;;;;;;;;5092586;28;20382;-67
2024/01/13 15:08:51;;;;;;;;;;;;;;;;;;5084367;28;19950;-68
2024/01/13 15:11:17;;;;;;;;;;;;;;;;;;5088291;28;19924;-67
2024/01/13 15:13:43;;;;;;;;;;;;;;;;;;5086179;28;19923;-67
2024/01/13 15:16:10;;;;;;;;;;;;;;;;;;5099932;28;19977;-68
2024/01/13 15:18:36;;;;;;;;;;;;;;;;;;5087414;28;19973;-67
2024/01/13 15:21:02;;;;;;;;;;;;;;;;;;5085691;28;20040;-67
2024/01/13 15:23:29;;;;;;;;;;;;;;;;;;5090855;28;19934;-66
2024/01/13 15:25:55;;;;;;;;;;;;;;;;;;5087418;28;19939;-71
2024/01/13 15:28:21;;;;;;;;;;;;;;;;;;5084283;28;19920;-69
2024/01/13 15:30:47;;;;;;;;;;;;;;;;;;5103892;28;20341;-70
2024/01/13 15:33:14;;;;;;;;;;;;;;;;;;5096396;28;19988;-69
2024/01/13 15:35:40;;;;;;;;;;;;;;;;;;5086705;28;19943;-70
2024/01/13 15:38:07;;;;;;;;;;;;;;;;;;5087729;28;19946;-71
2024/01/13 15:40:33;;;;;;;;;;;;;;;;;;5088112;28;19920;-69
2024/01/13 15:43:00;;;;;;;;;;;;;;;;;;5090230;28;20004;-70
2024/01/13 15:45:26;;;;;;;;;;;;;;;;;;5091491;28;19974;-71
2024/01/13 15:47:52;;;;;;;;;;;;;;;;;;5092689;28;20451;-69
2024/01/13 15:50:18;;;;;;;;;;;;;;;;;;5103631;28;20452;-69
2024/01/13 15:52:45;;;;;;;;;;;;;;;;;;5102499;28;20402;-69
2024/01/13 15:55:11;;;;;;;;;;;;;;;;;;5104844;28;19924;-69
2024/01/13 15:57:37;;;;;;;;;;;;;;;;;;5082440;28;19920;-70
2024/01/13 16:00:04;;;;;;;;;;;;;;;;;;5091794;28;19927;-69
2024/01/13 16:02:31;;;;;;;;;;;;;;;;;;5093736;28;19920;-70
2024/01/13 16:04:57;;;;;;;;;;;;;;;;;;5092399;28;19924;-69
2024/01/13 16:07:23;;;;;;;;;;;;;;;;;;5091360;28;19973;-69
2024/01/13 16:09:49;;;;;;;;;;;;;;;;;;5094281;28;19923;-69
2024/01/13 16:12:16;;;;;;;;;;;;;;;;;;5091298;28;19920;-69
2024/01/13 16:14:42;;;;;;;;;;;;;;;;;;5096453;28;19920;-69
2024/01/13 16:17:09;;;;;;;;;;;;;;;;;;5098506;28;20374;-69
2024/01/13 16:19:35;;;;;;;;;;;;;;;;;;5094541;28;19924;-69
2024/01/13 16:22:01;;;;;;;;;;;;;;;;;;5091195;28;19919;-69
2024/01/13 16:24:27;;;;;;;;;;;;;;;;;;5094556;28;19927;-69
2024/01/13 16:26:54;;;;;;;;;;;;;;;;;;5095088;28;19920;-68
2024/01/13 16:29:21;;;;;;;;;;;;;;;;;;5094795;28;19959;-68
2024/01/13 16:31:47;;;;;;;;;;;;;;;;;;5094881;28;19928;-68
2024/01/13 16:34:13;;;;;;;;;;;;;;;;;;5095022;28;19966;-68
2024/01/13 16:36:39;;;;;;;;;;;;;;;;;;5100659;28;20351;-68
2024/01/13 16:39:06;;;;;;;;;;;;;;;;;;5095110;28;19989;-69